Time;durP1;ratioP1;P1;durP2;ratioP2;P2;SDS_P1;SDS_P2;PMS_P1;PMS_P2;Temp;Humidity;BMP_temperature;BMP_pressure;BME280_temperature;BME280_humidity;BME280_pressure;Samples;Min_cycle;Max_cycle;Signal;HPM_P1;HPM_P2
2021/11/21 00:01:27;;;;;;;;;;;;;;;18.55;47.93;101532.69;5018681;28;19925;-84
2021/11/21 00:03:52;;;;;;;;;;;;;;;18.29;48.75;101521.69;5018881;28;19917;-84
2021/11/21 00:06:18;;;;;;;;;;;;;;;18.26;48.16;101518.31;5017303;28;20060;-83
2021/11/21 00:08:44;;;;;;;;;;;;;;;17.77;49.11;101522.47;5019077;28;19918;-85
2021/11/21 00:11:10;;;;;;;;;;;;;;;18.72;46.76;101512.31;5019873;28;20354;-84
2021/11/21 00:13:35;;;;;;;;;;;;;;;18.49;47.36;101513.94;5020207;28;19922;-84
2021/11/21 00:16:00;;;;;;;;;;;;;;;18.22;47.82;101518.53;5018639;28;19980;-84
2021/11/21 00:18:26;;;;;;;;;;;;;;;18.32;47.99;101501.44;5004578;28;19925;-84
2021/11/21 00:20:51;;;;;;;;;;;;;;;18.65;46.94;101500.91;5018739;28;20427;-84
2021/11/21 00:23:19;;;;;;;;;;;;;;;18.48;47.69;101495.75;5017016;28;20323;-84
2021/11/21 00:25:44;;;;;;;;;;;;;;;18.46;47.49;101490.38;5018308;28;19973;-85
2021/11/21 00:28:10;;;;;;;;;;;;;;;18.24;48.27;101488.28;5018070;28;19921;-84
2021/11/21 00:30:36;;;;;;;;;;;;;;;17.73;49.39;101478.03;5017557;28;19925;-84
2021/11/21 00:33:01;;;;;;;;;;;;;;;17.62;50.16;101478.78;5017708;28;20298;-84
2021/11/21 00:35:26;;;;;;;;;;;;;;;17.79;50.15;101482.22;5017516;28;19965;-84
2021/11/21 00:37:51;;;;;;;;;;;;;;;17.88;49.42;101478.84;5017673;28;19918;-84
2021/11/21 00:40:17;;;;;;;;;;;;;;;17.80;49.85;101481.22;5017531;28;19946;-85
2021/11/21 00:42:42;;;;;;;;;;;;;;;17.69;50.18;101479.22;5002880;28;19918;-85
2021/11/21 00:45:09;;;;;;;;;;;;;;;17.77;49.94;101471.38;5017758;28;19925;-84
2021/11/21 00:47:35;;;;;;;;;;;;;;;17.22;50.74;101478.66;5017940;28;19917;-85
2021/11/21 00:50:02;;;;;;;;;;;;;;;17.45;49.55;101479.91;5001917;28;19918;-84
2021/11/21 00:52:29;;;;;;;;;;;;;;;17.70;50.17;101476.38;5017399;28;19918;-84
2021/11/21 00:55:07;;;;;;;;;;;;;;;18.09;49.22;101479.28;5017326;28;19964;-84
2021/11/21 00:57:32;;;;;;;;;;;;;;;18.52;47.73;101478.09;5002728;28;19952;-84
2021/11/21 00:59:57;;;;;;;;;;;;;;;18.53;47.44;101471.66;5016803;28;20493;-85
2021/11/21 01:02:23;;;;;;;;;;;;;;;18.65;47.20;101468.03;5001812;28;20345;-84
2021/11/21 01:04:48;;;;;;;;;;;;;;;19.15;45.81;101465.34;5016804;28;19928;-83
2021/11/21 01:07:14;;;;;;;;;;;;;;;19.22;45.91;101465.75;5001746;28;19945;-84
2021/11/21 01:09:39;;;;;;;;;;;;;;;18.88;46.50;101463.63;5017689;28;19922;-87
2021/11/21 01:12:06;;;;;;;;;;;;;;;18.77;46.48;101460.78;5016638;28;19922;-85
2021/11/21 01:14:31;;;;;;;;;;;;;;;17.85;48.52;101463.50;5016953;28;20287;-86
2021/11/21 01:16:56;;;;;;;;;;;;;;;17.91;49.48;101462.25;5016895;28;19925;-85
2021/11/21 01:19:22;;;;;;;;;;;;;;;17.11;50.92;101464.84;5002429;28;19918;-84
2021/11/21 01:21:47;;;;;;;;;;;;;;;17.79;50.09;101457.59;5017604;28;19917;-85
2021/11/21 01:24:12;;;;;;;;;;;;;;;18.53;47.84;101447.00;5017518;28;19929;-84
2021/11/21 01:26:38;;;;;;;;;;;;;;;18.73;47.58;101445.53;5017351;28;19929;-84
2021/11/21 01:29:03;;;;;;;;;;;;;;;18.98;46.67;101447.41;5015987;28;19928;-85
2021/11/21 01:31:29;;;;;;;;;;;;;;;18.92;46.77;101440.50;5001256;28;19941;-85
2021/11/21 01:33:54;;;;;;;;;;;;;;;18.71;47.73;101451.13;5016948;28;20028;-84
2021/11/21 01:36:19;;;;;;;;;;;;;;;18.14;49.48;101440.63;5017530;28;19925;-84
2021/11/21 01:38:45;;;;;;;;;;;;;;;18.94;47.68;101434.91;5016846;28;19918;-83
2021/11/21 01:41:11;;;;;;;;;;;;;;;18.41;49.57;101433.16;5016149;28;19941;-83
2021/11/21 01:43:36;;;;;;;;;;;;;;;17.99;50.84;101437.94;5016665;28;19925;-84
2021/11/21 01:46:02;;;;;;;;;;;;;;;17.26;52.91;101439.22;5015585;28;19918;-84
2021/11/21 01:48:27;;;;;;;;;;;;;;;17.96;51.43;101435.44;5015315;28;20294;-84
2021/11/21 01:50:53;;;;;;;;;;;;;;;18.53;50.56;101428.69;5001656;28;19922;-84
2021/11/21 01:53:18;;;;;;;;;;;;;;;18.13;51.78;101422.41;5016958;28;19928;-84
2021/11/21 01:55:46;;;;;;;;;;;;;;;18.41;51.03;101422.22;5017200;28;19918;-84
2021/11/21 01:58:11;;;;;;;;;;;;;;;18.50;50.72;101414.34;5001849;28;19949;-84
2021/11/21 02:00:38;;;;;;;;;;;;;;;18.90;49.11;101412.34;5018165;28;19932;-85
2021/11/21 02:03:04;;;;;;;;;;;;;;;18.53;50.96;101409.50;5016835;28;20287;-84
2021/11/21 02:05:31;;;;;;;;;;;;;;;18.92;49.59;101407.59;5017575;28;19917;-84
2021/11/21 02:07:56;;;;;;;;;;;;;;;18.59;50.34;101403.56;5020182;28;19925;-84
2021/11/21 02:10:22;;;;;;;;;;;;;;;18.67;50.43;101402.13;5020568;28;19918;-83
2021/11/21 02:12:47;;;;;;;;;;;;;;;18.83;49.93;101399.16;5019799;28;20026;-83
2021/11/21 02:15:15;;;;;;;;;;;;;;;18.64;50.87;101389.53;5004543;28;19945;-83
2021/11/21 02:17:41;;;;;;;;;;;;;;;18.95;49.80;101387.31;5019480;28;20293;-83
2021/11/21 02:20:08;;;;;;;;;;;;;;;18.78;50.05;101389.41;5019450;28;19969;-83
2021/11/21 02:22:35;;;;;;;;;;;;;;;18.94;49.68;101385.56;5018768;28;20268;-83
2021/11/21 02:25:00;;;;;;;;;;;;;;;19.18;49.35;101381.97;5019721;28;19937;-84
2021/11/21 02:27:28;;;;;;;;;;;;;;;19.12;49.39;101388.78;5019735;28;20294;-83
2021/11/21 02:29:53;;;;;;;;;;;;;;;18.75;50.31;101380.50;5004437;28;19929;-82
2021/11/21 02:32:19;;;;;;;;;;;;;;;18.45;51.18;101378.16;5019501;28;19921;-83
2021/11/21 02:34:44;;;;;;;;;;;;;;;18.83;50.06;101377.22;5019223;28;19922;-83
2021/11/21 02:37:09;;;;;;;;;;;;;;;18.99;49.99;101366.00;5019940;28;19917;-83
2021/11/21 02:39:38;;;;;;;;;;;;;;;18.57;50.92;101367.19;5018386;28;20306;-83
2021/11/21 02:42:04;;;;;;;;;;;;;;;18.08;52.63;101361.66;5018601;28;20430;-84
2021/11/21 02:44:29;;;;;;;;;;;;;;;18.83;50.46;101360.78;5019009;28;20011;-83
2021/11/21 02:46:55;;;;;;;;;;;;;;;19.28;49.60;101347.38;5004296;28;19913;-83
2021/11/21 02:49:20;;;;;;;;;;;;;;;18.04;52.81;101353.66;5004266;28;20288;-83
2021/11/21 02:51:46;;;;;;;;;;;;;;;18.54;51.22;101340.03;5019183;28;19918;-84
2021/11/21 02:54:12;;;;;;;;;;;;;;;19.09;50.09;101329.56;5019377;28;19925;-85
2021/11/21 02:56:37;;;;;;;;;;;;;;;18.81;51.02;101322.53;5018071;28;19960;-85
2021/11/21 02:59:02;;;;;;;;;;;;;;;18.50;51.81;101332.13;5018021;28;20337;-84
2021/11/21 03:01:28;;;;;;;;;;;;;;;18.67;51.62;101326.28;5017823;28;19922;-84
2021/11/21 03:03:54;;;;;;;;;;;;;;;17.81;53.84;101332.47;5004111;28;19922;-84
2021/11/21 03:06:20;;;;;;;;;;;;;;;17.91;54.39;101327.25;5019299;28;19918;-85
2021/11/21 03:08:45;;;;;;;;;;;;;;;17.52;54.85;101322.56;5003978;28;19914;-84
2021/11/21 03:11:17;;;;;;;;;;;;;;;17.52;55.15;101327.16;5018627;28;19918;-84
2021/11/21 03:13:43;;;;;;;;;;;;;;;17.26;56.57;101327.09;5003252;28;19953;-82
2021/11/21 03:16:08;;;;;;;;;;;;;;;17.34;56.07;101321.09;5017476;28;19941;-84
2021/11/21 03:18:34;;;;;;;;;;;;;;;17.36;55.96;101321.88;5017821;28;20034;-84
2021/11/21 03:20:59;;;;;;;;;;;;;;;18.13;53.87;101332.06;5003603;28;19919;-84
2021/11/21 03:23:24;;;;;;;;;;;;;;;16.48;60.04;101333.13;5018979;28;19924;-85
2021/11/21 03:25:50;;;;;;;;;;;;;;;17.01;57.48;101319.66;5003812;28;19922;-84
2021/11/21 03:28:16;;;;;;;;;;;;;;;16.93;58.14;101322.94;5018702;28;19928;-84
2021/11/21 03:30:42;;;;;;;;;;;;;;;16.31;58.93;101315.13;5018047;28;19922;-88
2021/11/21 03:33:07;;;;;;;;;;;;;;;17.82;55.17;101318.66;5017710;28;20056;-84
2021/11/21 03:35:33;;;;;;;;;;;;;;;18.10;53.23;101324.97;5003180;28;20414;-85
2021/11/21 03:37:58;;;;;;;;;;;;;;;18.77;51.21;101316.38;5018372;28;19921;-84
2021/11/21 03:40:23;;;;;;;;;;;;;;;19.08;50.48;101319.59;5017700;28;19945;-85
2021/11/21 03:42:48;;;;;;;;;;;;;;;18.76;51.00;101322.84;5017508;28;19922;-85
2021/11/21 03:45:15;;;;;;;;;;;;;;;17.76;53.36;101323.72;5017568;28;19941;-84
2021/11/21 03:47:40;;;;;;;;;;;;;;;17.85;53.43;101326.66;5003027;28;19918;-84
2021/11/21 03:50:07;;;;;;;;;;;;;;;18.14;52.99;101326.47;5001485;28;19976;-84
2021/11/21 03:52:32;;;;;;;;;;;;;;;17.77;53.87;101322.69;5017802;28;19918;-84
2021/11/21 03:54:58;;;;;;;;;;;;;;;18.47;51.72;101327.75;5017920;28;19925;-84
2021/11/21 03:57:23;;;;;;;;;;;;;;;17.94;52.62;101327.91;5017862;28;19929;-84
2021/11/21 03:59:48;;;;;;;;;;;;;;;18.55;51.24;101329.91;5017148;28;20446;-84
2021/11/21 04:02:14;;;;;;;;;;;;;;;18.90;49.75;101334.66;5003651;28;19918;-84
2021/11/21 04:04:39;;;;;;;;;;;;;;;18.86;49.99;101328.56;5017378;28;20406;-84
2021/11/21 04:07:04;;;;;;;;;;;;;;;18.83;49.92;101328.75;5016916;28;20343;-85
2021/11/21 04:09:30;;;;;;;;;;;;;;;19.19;49.22;101326.09;5017512;28;19997;-85
2021/11/21 04:11:55;;;;;;;;;;;;;;;18.45;50.58;101328.84;5018116;28;19918;-84
2021/11/21 04:14:20;;;;;;;;;;;;;;;19.18;49.20;101321.63;5002026;28;19918;-85
2021/11/21 04:16:46;;;;;;;;;;;;;;;19.42;48.40;101321.59;5016989;28;20004;-85
2021/11/21 04:19:11;;;;;;;;;;;;;;;19.09;48.94;101318.59;5017595;28;19989;-85
2021/11/21 04:21:37;;;;;;;;;;;;;;;19.14;48.95;101315.47;5002887;28;19925;-84
2021/11/21 04:24:03;;;;;;;;;;;;;;;19.07;49.16;101323.31;5016090;28;19976;-85
2021/11/21 04:26:28;;;;;;;;;;;;;;;18.86;49.22;101322.22;5015817;28;20398;-84
2021/11/21 04:28:54;;;;;;;;;;;;;;;18.79;49.51;101327.22;5016790;28;20375;-84
2021/11/21 04:31:19;;;;;;;;;;;;;;;18.79;49.39;101327.22;5001760;28;20375;-85
2021/11/21 04:33:45;;;;;;;;;;;;;;;18.59;49.50;101321.34;5017438;28;19917;-85
2021/11/21 04:36:10;;;;;;;;;;;;;;;18.97;48.50;101330.47;5016496;28;19918;-85
2021/11/21 04:38:35;;;;;;;;;;;;;;;18.97;48.66;101325.00;5017276;28;20003;-85
2021/11/21 04:41:01;;;;;;;;;;;;;;;18.69;49.25;101331.63;5016049;28;20287;-84
2021/11/21 04:43:26;;;;;;;;;;;;;;;18.40;50.01;101343.78;5017144;28;19918;-84
2021/11/21 04:45:54;;;;;;;;;;;;;;;18.24;49.56;101337.66;5015973;28;19913;-84
2021/11/21 04:48:19;;;;;;;;;;;;;;;17.24;51.84;101331.81;5016518;28;19929;-84
2021/11/21 04:50:44;;;;;;;;;;;;;;;17.65;51.07;101336.28;5016544;28;19918;-84
2021/11/21 04:53:10;;;;;;;;;;;;;;;17.70;50.78;101334.09;5016273;28;20033;-84
2021/11/21 04:55:35;;;;;;;;;;;;;;;17.80;50.75;101328.84;5016833;28;19925;-84
2021/11/21 04:58:01;;;;;;;;;;;;;;;17.90;50.56;101329.09;5015609;28;19926;-84
2021/11/21 05:00:26;;;;;;;;;;;;;;;18.55;49.07;101321.69;5014882;28;19937;-83
2021/11/21 05:02:52;;;;;;;;;;;;;;;18.64;48.63;101322.91;5001329;28;19993;-84
2021/11/21 05:05:19;;;;;;;;;;;;;;;18.83;47.86;101319.66;5015641;28;19918;-84
2021/11/21 05:07:44;;;;;;;;;;;;;;;19.01;47.79;101314.66;5015167;28;19922;-84
2021/11/21 05:10:10;;;;;;;;;;;;;;;18.61;48.53;101324.00;5015522;28;19940;-84
2021/11/21 05:12:36;;;;;;;;;;;;;;;18.19;49.12;101315.19;5000360;28;19917;-84
2021/11/21 05:15:02;;;;;;;;;;;;;;;18.05;49.68;101322.53;5000134;28;19925;-83
2021/11/21 05:17:28;;;;;;;;;;;;;;;18.29;48.73;101320.88;5013791;28;20375;-84
2021/11/21 05:19:53;;;;;;;;;;;;;;;18.75;47.89;101315.63;5015536;28;19929;-84
2021/11/21 05:22:19;;;;;;;;;;;;;;;18.58;48.04;101324.22;5015069;28;20024;-84
2021/11/21 05:24:44;;;;;;;;;;;;;;;18.92;47.35;101319.88;5015340;28;20275;-84
2021/11/21 05:27:09;;;;;;;;;;;;;;;18.52;48.03;101324.66;5015320;28;19921;-85
2021/11/21 05:29:35;;;;;;;;;;;;;;;18.09;48.93;101336.00;5015427;28;19929;-84
2021/11/21 05:32:00;;;;;;;;;;;;;;;17.74;49.44;101333.88;5014826;28;19925;-83
2021/11/21 05:34:25;;;;;;;;;;;;;;;18.44;47.61;101338.06;5015565;28;20283;-84
2021/11/21 05:36:50;;;;;;;;;;;;;;;18.45;47.69;101328.84;4999582;28;19918;-84
2021/11/21 05:39:16;;;;;;;;;;;;;;;18.78;46.71;101323.63;5014515;28;19917;-85
2021/11/21 05:41:42;;;;;;;;;;;;;;;18.73;46.42;101319.47;5014348;28;19918;-84
2021/11/21 05:44:07;;;;;;;;;;;;;;;18.87;46.15;101321.19;5014616;28;19918;-85
2021/11/21 05:46:32;;;;;;;;;;;;;;;18.92;45.94;101317.13;4998803;28;19918;-84
2021/11/21 05:48:57;;;;;;;;;;;;;;;18.63;46.63;101326.63;5014830;28;20538;-84
2021/11/21 05:51:23;;;;;;;;;;;;;;;18.62;46.30;101323.00;4998366;28;20009;-84
2021/11/21 05:53:48;;;;;;;;;;;;;;;18.89;44.90;101309.13;5014718;28;20395;-85
2021/11/21 05:56:13;;;;;;;;;;;;;;;18.87;46.04;101313.88;5015238;28;19918;-85
2021/11/21 05:58:38;;;;;;;;;;;;;;;18.73;45.61;101317.59;5015513;28;19933;-84
2021/11/21 06:01:03;;;;;;;;;;;;;;;18.81;45.72;101318.88;5014222;28;20434;-84
2021/11/21 06:03:29;;;;;;;;;;;;;;;18.55;46.28;101317.09;4999593;28;19922;-84
2021/11/21 06:05:54;;;;;;;;;;;;;;;18.40;45.91;101321.84;5014721;28;19924;-84
2021/11/21 06:08:19;;;;;;;;;;;;;;;18.60;46.03;101322.25;5013247;28;20310;-84
2021/11/21 06:10:45;;;;;;;;;;;;;;;18.34;45.84;101308.63;5000070;28;19985;-85
2021/11/21 06:13:11;;;;;;;;;;;;;;;18.14;45.80;101310.03;4999710;28;19925;-83
2021/11/21 06:15:36;;;;;;;;;;;;;;;18.05;45.91;101317.03;5014086;28;19924;-84
2021/11/21 06:18:01;;;;;;;;;;;;;;;17.93;45.92;101309.72;5014880;28;20342;-84
2021/11/21 06:20:26;;;;;;;;;;;;;;;18.29;46.11;101313.53;5013864;28;20008;-84
2021/11/21 06:22:52;;;;;;;;;;;;;;;18.17;45.36;101312.56;5013940;28;20378;-84
2021/11/21 06:25:17;;;;;;;;;;;;;;;18.01;45.77;101315.53;5012982;28;19940;-84
2021/11/21 06:27:42;;;;;;;;;;;;;;;18.32;45.15;101320.66;5013929;28;20410;-85
2021/11/21 06:30:09;;;;;;;;;;;;;;;18.31;45.15;101322.50;4998771;28;19918;-84
2021/11/21 06:32:34;;;;;;;;;;;;;;;18.04;45.77;101315.31;5013403;28;19941;-84
2021/11/21 06:34:59;;;;;;;;;;;;;;;18.25;45.31;101317.47;5013894;28;19972;-84
2021/11/21 06:37:25;;;;;;;;;;;;;;;18.40;44.57;101319.13;4999300;28;19922;-84
2021/11/21 06:39:50;;;;;;;;;;;;;;;17.78;45.78;101324.47;4998543;28;19925;-84
2021/11/21 06:42:15;;;;;;;;;;;;;;;16.78;48.19;101327.53;5012163;28;20315;-84
2021/11/21 06:44:41;;;;;;;;;;;;;;;16.30;49.18;101325.19;4998089;28;19960;-84
2021/11/21 06:47:07;;;;;;;;;;;;;;;16.91;47.81;101332.19;5012909;28;19918;-84
2021/11/21 06:49:32;;;;;;;;;;;;;;;17.11;47.81;101336.34;4998423;28;19918;-84
2021/11/21 06:51:57;;;;;;;;;;;;;;;16.39;48.76;101331.88;5015579;28;19917;-83
2021/11/21 06:54:22;;;;;;;;;;;;;;;16.55;48.82;101329.03;5002027;28;19925;-84
2021/11/21 06:56:48;;;;;;;;;;;;;;;17.33;47.38;101328.44;5016778;28;19918;-84
2021/11/21 06:59:13;;;;;;;;;;;;;;;17.63;46.82;101331.88;5000883;28;19917;-84
2021/11/21 07:01:40;;;;;;;;;;;;;;;17.44;47.10;101335.03;5002010;28;19928;-83
2021/11/21 07:04:06;;;;;;;;;;;;;;;17.16;46.62;101336.91;5001306;28;19972;-83
2021/11/21 07:06:41;;;;;;;;;;;;;;;17.03;47.46;101352.38;5018161;28;19918;-84
2021/11/21 07:09:08;;;;;;;;;;;;;;;16.99;47.50;101346.25;5016948;28;19925;-84
2021/11/21 07:11:34;;;;;;;;;;;;;;;16.63;47.67;101350.38;5017091;28;19917;-84
2021/11/21 07:14:00;;;;;;;;;;;;;;;16.77;47.82;101355.84;5002398;28;19922;-84
2021/11/21 07:16:25;;;;;;;;;;;;;;;16.69;47.78;101357.31;5016892;28;20173;-83
2021/11/21 07:18:50;;;;;;;;;;;;;;;16.60;47.21;101362.38;5016036;28;19925;-83
2021/11/21 07:21:16;;;;;;;;;;;;;;;16.12;48.55;101364.53;5015980;28;20046;-83
2021/11/21 07:23:41;;;;;;;;;;;;;;;15.88;48.99;101366.94;5001286;28;19928;-83
2021/11/21 07:26:07;;;;;;;;;;;;;;;15.70;49.27;101364.34;5016317;28;20407;-84
2021/11/21 07:28:32;;;;;;;;;;;;;;;16.11;48.10;101357.34;5017132;28;20068;-84
2021/11/21 07:30:57;;;;;;;;;;;;;;;15.76;48.71;101365.81;5002292;28;19918;-83
2021/11/21 07:33:23;;;;;;;;;;;;;;;15.92;48.30;101361.19;5002174;28;20013;-84
2021/11/21 07:35:48;;;;;;;;;;;;;;;16.29;47.17;101361.63;5016494;28;20321;-84
2021/11/21 07:38:13;;;;;;;;;;;;;;;16.21;47.82;101363.97;5017760;28;19972;-83
2021/11/21 07:40:39;;;;;;;;;;;;;;;16.45;46.69;101360.66;5017222;28;19925;-85
2021/11/21 07:43:04;;;;;;;;;;;;;;;16.41;46.34;101362.72;5004000;28;19918;-84
2021/11/21 07:45:29;;;;;;;;;;;;;;;16.52;46.69;101367.47;5019444;28;19922;-85
2021/11/21 07:47:54;;;;;;;;;;;;;;;16.47;46.36;101365.03;5018954;28;19913;-85
2021/11/21 07:50:20;;;;;;;;;;;;;;;16.12;47.04;101365.44;5018828;28;19934;-84
2021/11/21 07:52:45;;;;;;;;;;;;;;;16.89;45.88;101373.28;5015973;28;20021;-84
2021/11/21 07:55:11;;;;;;;;;;;;;;;17.00;46.07;101376.22;4999186;28;20406;-85
2021/11/21 07:57:36;;;;;;;;;;;;;;;16.57;45.98;101378.09;5015824;28;19926;-86
2021/11/21 08:00:05;;;;;;;;;;;;;;;15.64;48.00;101383.81;5016065;28;20004;-84
2021/11/21 08:02:30;;;;;;;;;;;;;;;16.12;46.62;101389.09;5003691;28;19918;-82
2021/11/21 08:04:55;;;;;;;;;;;;;;;16.19;46.20;101381.44;5018651;28;19925;-84
2021/11/21 08:07:21;;;;;;;;;;;;;;;15.45;48.52;101392.22;5000824;28;19925;-84
2021/11/21 08:09:46;;;;;;;;;;;;;;;15.99;46.97;101404.47;4999881;28;19928;-82
2021/11/21 08:12:11;;;;;;;;;;;;;;;16.11;46.51;101401.03;5015669;28;19924;-85
2021/11/21 08:14:38;;;;;;;;;;;;;;;16.77;45.48;101398.66;5015157;28;19922;-84
2021/11/21 08:17:03;;;;;;;;;;;;;;;17.21;44.62;101402.22;5016361;28;19925;-86
2021/11/21 08:19:28;;;;;;;;;;;;;;;17.55;43.84;101406.28;5015716;28;19922;-85
2021/11/21 08:21:54;;;;;;;;;;;;;;;17.66;43.85;101408.28;5015485;28;19960;-87
2021/11/21 08:24:19;;;;;;;;;;;;;;;17.53;43.52;101400.06;5014467;28;19932;-83
2021/11/21 08:26:44;;;;;;;;;;;;;;;17.73;44.31;101398.69;5014789;28;19996;-85
2021/11/21 08:29:09;;;;;;;;;;;;;;;17.89;43.50;101404.88;5015745;28;19929;-85
2021/11/21 08:31:35;;;;;;;;;;;;;;;17.91;43.84;101402.03;5001359;28;19918;-85
2021/11/21 08:34:00;;;;;;;;;;;;;;;17.92;43.77;101398.31;5018891;28;19918;-85
2021/11/21 08:36:25;;;;;;;;;;;;;;;17.90;44.11;101405.75;5016234;28;19922;-85
2021/11/21 08:38:50;;;;;;;;;;;;;;;17.94;44.20;101400.94;5019405;28;20355;-85
2021/11/21 08:41:17;;;;;;;;;;;;;;;18.03;44.10;101412.13;5033663;28;19918;-85
2021/11/21 08:43:42;;;;;;;;;;;;;;;18.13;43.79;101400.50;5033445;28;19924;-83
2021/11/21 08:46:08;;;;;;;;;;;;;;;17.98;43.69;101399.72;5034122;28;20020;-86
2021/11/21 08:48:33;;;;;;;;;;;;;;;17.98;43.86;101397.88;5019064;28;19925;-86
2021/11/21 08:50:58;;;;;;;;;;;;;;;17.84;44.21;101400.66;5035259;28;20456;-87
2021/11/21 08:53:24;;;;;;;;;;;;;;;17.93;44.03;101401.94;5035576;28;19908;-84
2021/11/21 08:55:49;;;;;;;;;;;;;;;17.98;44.37;101395.16;5035017;28;20015;-83
2021/11/21 08:58:14;;;;;;;;;;;;;;;18.02;44.15;101391.19;5020761;28;20020;-89
2021/11/21 09:00:39;;;;;;;;;;;;;;;17.93;44.48;101400.06;5037395;28;19921;-89
2021/11/21 09:03:05;;;;;;;;;;;;;;;17.92;44.49;101398.31;5022939;28;20279;-88
2021/11/21 09:05:30;;;;;;;;;;;;;;;17.96;43.83;101405.31;5036671;28;20406;-88
2021/11/21 09:07:56;;;;;;;;;;;;;;;17.40;43.74;101410.06;5020372;28;20000;-86
2021/11/21 09:10:22;;;;;;;;;;;;;;;17.73;42.98;101411.50;5025973;28;19964;-88
2021/11/21 09:12:50;;;;;;;;;;;;;;;17.88;42.96;101404.94;5020624;28;19957;-85
2021/11/21 09:15:17;;;;;;;;;;;;;;;17.14;44.53;101405.34;5015232;28;19921;-89
2021/11/21 09:17:43;;;;;;;;;;;;;;;16.80;44.76;101403.94;5024217;28;19932;-83
2021/11/21 09:20:09;;;;;;;;;;;;;;;17.20;43.94;101401.34;5019716;28;20001;-89
2021/11/21 09:22:34;;;;;;;;;;;;;;;17.26;43.84;101395.47;5034759;28;19918;-89
2021/11/21 09:25:02;;;;;;;;;;;;;;;17.09;44.16;101403.91;5034321;28;19968;-89
2021/11/21 09:27:27;;;;;;;;;;;;;;;17.61;43.36;101403.13;5017357;28;19926;-90
2021/11/21 09:29:52;;;;;;;;;;;;;;;17.17;44.50;101407.88;5014568;28;19925;-83
2021/11/21 09:32:18;;;;;;;;;;;;;;;17.78;43.83;101404.69;5013759;28;19918;-87
2021/11/21 09:34:43;;;;;;;;;;;;;;;17.74;43.43;101415.97;5013492;28;19918;-82
2021/11/21 09:37:08;;;;;;;;;;;;;;;17.95;43.52;101405.41;5013552;28;19921;-87
2021/11/21 09:39:34;;;;;;;;;;;;;;;17.76;43.46;101414.03;5014167;28;20360;-84
2021/11/21 09:42:00;;;;;;;;;;;;;;;17.86;43.25;101421.47;4998019;28;19961;-86
2021/11/21 09:44:25;;;;;;;;;;;;;;;18.37;42.54;101425.28;5012437;28;19918;-83
2021/11/21 09:46:52;;;;;;;;;;;;;;;18.84;41.77;101417.34;5012734;28;19918;-86
2021/11/21 09:49:18;;;;;;;;;;;;;;;18.79;41.98;101425.91;5012283;28;19922;-85
2021/11/21 09:51:45;;;;;;;;;;;;;;;18.96;41.45;101421.94;5013166;28;19956;-86
2021/11/21 09:54:10;;;;;;;;;;;;;;;18.34;41.83;101420.03;5011233;28;19918;-83
2021/11/21 09:56:35;;;;;;;;;;;;;;;18.23;42.73;101418.06;5012570;28;20271;-84
2021/11/21 09:59:00;;;;;;;;;;;;;;;18.61;42.76;101417.16;5013788;28;19996;-85
2021/11/21 10:01:37;;;;;;;;;;;;;;;19.07;41.79;101419.31;4998573;28;19918;-88
2021/11/21 10:04:04;;;;;;;;;;;;;;;19.10;40.84;101410.84;4999260;28;19918;-82
2021/11/21 10:06:44;;;;;;;;;;;;;;;19.18;40.92;101415.75;5014978;28;19931;-88
2021/11/21 10:09:10;;;;;;;;;;;;;;;18.85;41.82;101413.63;5007903;28;19926;-90
2021/11/21 10:11:55;;;;;;;;;;;;;;;19.55;40.05;101407.50;5016963;28;19918;-85
2021/11/21 10:14:21;;;;;;;;;;;;;;;20.41;39.09;101405.38;5031913;28;19972;-85
2021/11/21 10:16:48;;;;;;;;;;;;;;;21.00;37.31;101403.38;5016605;28;19918;-86
2021/11/21 10:19:17;;;;;;;;;;;;;;;20.71;37.60;101399.31;5033215;28;20071;-88
2021/11/21 10:21:46;;;;;;;;;;;;;;;21.58;36.77;101401.25;5033442;28;19961;-86
2021/11/21 10:24:25;;;;;;;;;;;;;;;21.31;35.76;101409.06;5000403;28;20371;-90
2021/11/21 10:27:05;;;;;;;;;;;;;;;20.87;35.89;101407.16;5014951;28;20061;-87
2021/11/21 10:29:34;;;;;;;;;;;;;;;21.57;34.77;101405.03;5017249;28;19932;-85
2021/11/21 10:32:02;;;;;;;;;;;;;;;21.53;35.09;101403.53;5016509;28;20338;-87
2021/11/21 10:34:27;;;;;;;;;;;;;;;20.14;36.67;101397.44;5015888;28;19918;-84
2021/11/21 10:36:52;;;;;;;;;;;;;;;20.52;36.22;101408.13;5016462;28;19966;-87
2021/11/21 10:39:24;;;;;;;;;;;;;;;20.45;36.39;101406.00;5015580;28;19917;-84
2021/11/21 10:41:51;;;;;;;;;;;;;;;20.88;36.13;101408.03;5001192;28;20010;-85
2021/11/21 10:44:20;;;;;;;;;;;;;;;20.11;37.82;101398.59;5015871;28;19924;-87
2021/11/21 10:46:53;;;;;;;;;;;;;;;20.02;37.56;101413.06;5015011;28;19961;-83
2021/11/21 10:49:18;;;;;;;;;;;;;;;20.60;37.08;101417.63;5015555;28;20393;-86
2021/11/21 10:52:00;;;;;;;;;;;;;;;21.20;36.28;101407.25;5014739;28;19957;-84
2021/11/21 10:54:25;;;;;;;;;;;;;;;21.44;35.18;101404.28;5000431;28;20544;-84
2021/11/21 10:56:52;;;;;;;;;;;;;;;22.16;34.61;101408.22;5015542;28;19914;-85
2021/11/21 10:59:33;;;;;;;;;;;;;;;22.11;34.74;101408.63;5015773;28;19917;-84
2021/11/21 11:02:07;;;;;;;;;;;;;;;22.68;33.81;101405.50;5015104;28;20009;-84
2021/11/21 11:04:33;;;;;;;;;;;;;;;23.00;33.00;101412.72;5020746;28;19964;-83
2021/11/21 11:07:09;;;;;;;;;;;;;;;22.48;34.34;101407.28;5013804;28;19918;-83
2021/11/21 11:09:34;;;;;;;;;;;;;;;22.55;33.82;101405.72;5026792;28;19921;-85
2021/11/21 11:12:00;;;;;;;;;;;;;;;22.52;34.32;101413.41;5034042;28;20405;-84
2021/11/21 11:14:25;;;;;;;;;;;;;;;20.64;37.46;101410.91;5015532;28;19917;-85
2021/11/21 11:16:54;;;;;;;;;;;;;;;20.37;36.68;101406.63;5010231;28;19921;-84
2021/11/21 11:19:19;;;;;;;;;;;;;;;19.71;36.67;101411.78;5022398;28;19922;-85
2021/11/21 11:21:47;;;;;;;;;;;;;;;19.67;37.45;101408.38;5029546;28;19918;-82
2021/11/21 11:24:13;;;;;;;;;;;;;;;19.34;39.06;101403.63;5004466;28;19956;-86
2021/11/21 11:26:38;;;;;;;;;;;;;;;18.89;39.46;101409.72;5028053;28;19925;-85
2021/11/21 11:29:05;;;;;;;;;;;;;;;18.69;40.01;101419.34;5021534;28;20375;-84
2021/11/21 11:31:32;;;;;;;;;;;;;;;18.72;40.27;101420.00;5027558;28;19924;-85
2021/11/21 11:33:59;;;;;;;;;;;;;;;18.68;39.85;101421.22;5021657;28;19937;-85
2021/11/21 11:36:27;;;;;;;;;;;;;;;18.91;39.35;101421.44;5023967;28;19924;-85
2021/11/21 11:38:58;;;;;;;;;;;;;;;18.55;40.11;101426.69;5022145;28;20293;-86
2021/11/21 11:41:28;;;;;;;;;;;;;;;18.81;39.24;101417.56;5005572;28;19926;-85
2021/11/21 11:43:55;;;;;;;;;;;;;;;19.66;38.76;101415.75;5023360;28;20291;-83
2021/11/21 11:46:23;;;;;;;;;;;;;;;20.14;37.01;101417.56;5006045;28;19922;-84
2021/11/21 11:48:56;;;;;;;;;;;;;;;20.67;36.12;101413.44;5023618;28;19975;-84
2021/11/21 11:51:23;;;;;;;;;;;;;;;21.30;34.55;101407.31;5025422;28;19929;-84
2021/11/21 11:54:07;;;;;;;;;;;;;;;21.74;34.89;101410.94;5021698;28;19917;-90
2021/11/21 11:56:42;;;;;;;;;;;;;;;22.64;33.31;101407.63;5024930;28;19933;-88
2021/11/21 11:59:08;;;;;;;;;;;;;;;22.29;34.50;101417.16;5009878;28;20034;-89
2021/11/21 12:01:34;;;;;;;;;;;;;;;20.92;37.78;101423.25;5015587;28;19918;-85
2021/11/21 12:03:59;;;;;;;;;;;;;;;19.75;39.11;101432.53;5032386;28;19925;-87
2021/11/21 12:06:45;;;;;;;;;;;;;;;19.03;40.69;101439.72;5033646;28;19909;-86
2021/11/21 12:09:19;;;;;;;;;;;;;;;18.33;41.46;101441.06;5015929;28;19929;-87
2021/11/21 12:11:57;;;;;;;;;;;;;;;18.02;42.57;101436.88;5015184;28;20350;-84
2021/11/21 12:14:31;;;;;;;;;;;;;;;18.72;41.17;101430.06;5016935;28;20317;-87
2021/11/21 12:17:01;;;;;;;;;;;;;;;18.70;40.82;101432.06;5027372;28;19949;-85
2021/11/21 12:19:39;;;;;;;;;;;;;;;18.81;40.74;101426.69;5016003;28;19917;-87
2021/11/21 12:22:05;;;;;;;;;;;;;;;19.07;39.55;101429.41;5016517;28;19955;-83
2021/11/21 12:24:32;;;;;;;;;;;;;;;19.29;39.82;101428.66;5017467;28;19999;-88
2021/11/21 12:27:00;;;;;;;;;;;;;;;19.75;39.18;101422.41;5012998;28;20021;-84
2021/11/21 12:29:31;;;;;;;;;;;;;;;19.28;39.98;101418.69;5033294;28;20363;-89
2021/11/21 12:31:58;;;;;;;;;;;;;;;20.76;38.23;101409.91;5034985;28;19968;-90